Terminal Aerodrome Forecast
Issued by NWS Louisville, KY

Home | Current Version | Previous Version | Text Only | Print | Product List | Glossary On
Versions: 1 2 3 4 5 6 7 8 9 10 11 12 13
000
FTUS43 KLMK 192323
TAFSDF
TAF
KSDF 192323Z 2000/2106 20005KT P6SM SKC
     FM200900 19003KT 5SM BR SKC
      TEMPO 2010/2012 2SM BR
     FM201300 17006KT P6SM FEW250=

USA.gov is the U.S. government's official web portal to all federal, state and local government web resources and services.